Archival Weather

John F Kennedy Intl

New York, New York (KJFK)

Report from: Thursday, September 21, 2023 4:51 AM EDT
Current time: Sunday, February 25, 2024 4:53 PM EST

Current weather – Weather history – Daily summaries
Weather forecast

Temperature14.4°C (57.9°F)
Dew point10.6°C (51.1°F)
Winds 5 kts (2.6 m/s, 5.8 mph) North (10°)
Visibility10 mi. (16.1 km)
Clouds Few clouds 25,000 ft. (7,620 m)
Altimeter30.22 in.Hg (1023 mB)
Relative humidity78 %
Density altitude-233 ft. (-71 m)
Sea-level pressure102.3 kPa (1023 mB, 30.22 in.Hg)
Remarks System requires maintenance
Automated weather observing station with precipitation discriminator
Pressure rising more quickly
Flight conditions Visual Meteorological Conditions
Raw dataKJFK 210851Z 01005KT 10SM FEW250 14/11 A3022 RMK AO2 SLP234 T01440106 53009 $
An error has occurred. This application may no longer respond until reloaded. Reload 🗙